Time;durP1;ratioP1;P1;durP2;ratioP2;P2;SDS_P1;SDS_P2;PMS_P1;PMS_P2;Temp;Humidity;BMP_temperature;BMP_pressure;BME280_temperature;BME280_humidity;BME280_pressure;Samples;Min_cycle;Max_cycle;Signal;HPM_P1;HPM_P2
2021/06/27 00:00:00;;;;;;;2.53;2.33;;;17.50;99.90;17.00;97025.00;;;;5100226;28;20210;-66
2021/06/27 00:02:49;;;;;;;5.60;2.63;;;17.50;99.90;16.80;97035.00;;;;5096547;28;20299;-66
2021/06/27 00:05:41;;;;;;;3.07;2.87;;;17.40;99.90;16.80;97039.00;;;;5102689;28;20234;-66
2021/06/27 00:08:30;;;;;;;2.67;2.37;;;17.30;99.90;16.80;97033.00;;;;5107232;28;20202;-66
2021/06/27 00:11:20;;;;;;;3.60;2.80;;;17.20;99.90;16.80;97036.00;;;;5109117;28;20218;-67
2021/06/27 00:14:08;;;;;;;3.23;2.93;;;17.20;99.90;16.90;97026.00;;;;5108810;28;20206;-67
2021/06/27 00:16:57;;;;;;;7.87;3.23;;;17.20;99.90;16.90;97026.00;;;;5096263;28;20210;-67
2021/06/27 00:19:46;;;;;;;5.93;2.70;;;17.20;99.90;17.00;97021.00;;;;5108629;28;20234;-67
2021/06/27 00:22:37;;;;;;;7.17;3.77;;;17.20;99.90;17.00;97018.00;;;;5108122;28;20211;-67
2021/06/27 00:25:31;;;;;;;3.63;2.90;;;17.20;99.90;17.10;97012.00;;;;5108710;28;20666;-67
2021/06/27 00:28:20;;;;;;;3.10;2.90;;;17.20;99.90;17.10;97018.00;;;;5098622;28;20202;-67
2021/06/27 00:31:10;;;;;;;3.43;2.07;;;17.30;99.90;17.00;97011.00;;;;5109770;28;20214;-67
2021/06/27 00:33:59;;;;;;;2.90;2.60;;;17.30;99.90;17.00;97007.00;;;;5106608;28;20229;-66
2021/06/27 00:36:48;;;;;;;2.03;1.87;;;17.30;99.90;16.90;97000.00;;;;5103159;28;20581;-67
2021/06/27 00:39:39;;;;;;;2.67;2.33;;;17.30;99.90;16.90;97007.00;;;;5097618;28;20214;-66
2021/06/27 00:42:28;;;;;;;4.00;2.30;;;17.20;99.90;16.90;97015.00;;;;5109118;27;20837;-67
2021/06/27 00:45:21;;;;;;;3.47;2.30;;;17.20;99.90;16.90;97011.00;;;;5108408;28;20220;-65
2021/06/27 00:48:10;;;;;;;3.10;2.50;;;17.20;99.90;16.90;97015.00;;;;5108423;28;20206;-65
2021/06/27 00:51:00;;;;;;;3.50;2.60;;;17.20;99.90;16.90;97016.00;;;;5108047;28;20228;-65
2021/06/27 00:53:50;;;;;;;2.47;2.27;;;17.20;99.90;17.00;97021.00;;;;5106987;28;20578;-65
2021/06/27 00:56:44;;;;;;;3.33;3.03;;;17.20;99.90;16.80;97032.00;;;;5103300;28;20195;-65
2021/06/27 00:59:32;;;;;;;3.33;2.93;;;17.20;99.90;16.80;97032.00;;;;5108918;28;20724;-64
2021/06/27 01:02:21;;;;;;;3.63;2.30;;;17.20;99.90;17.00;97037.00;;;;5108696;28;20743;-65
2021/06/27 01:05:14;;;;;;;3.30;3.00;;;17.20;99.90;17.10;97028.00;;;;5108579;28;20199;-67
2021/06/27 01:08:03;;;;;;;5.30;3.10;;;17.20;99.90;17.10;97033.00;;;;5107402;28;20207;-66
2021/06/27 01:10:52;;;;;;;2.13;2.00;;;17.20;99.90;17.00;97034.00;;;;5108856;28;20199;-67
2021/06/27 01:13:44;;;;;;;2.37;2.17;;;17.30;99.90;17.10;97040.00;;;;5105802;28;20569;-66
2021/06/27 01:16:37;;;;;;;3.33;2.23;;;17.30;99.90;17.20;97044.00;;;;5094707;28;20214;-67
2021/06/27 01:19:32;;;;;;;2.77;2.37;;;17.30;99.90;17.10;97052.00;;;;5108455;28;20221;-65
2021/06/27 01:22:25;;;;;;;5.87;2.87;;;17.40;99.90;17.00;97044.00;;;;5107675;28;20223;-66
2021/06/27 01:25:20;;;;;;;5.63;2.90;;;17.30;99.90;17.10;97050.00;;;;5108159;28;20207;-67
2021/06/27 01:28:10;;;;;;;5.67;2.40;;;17.40;99.90;17.20;97053.00;;;;5108287;28;20206;-67
2021/06/27 01:30:59;;;;;;;4.40;2.83;;;17.40;99.90;17.00;97064.00;;;;5106262;28;20230;-67
2021/06/27 01:33:49;;;;;;;3.33;2.90;;;17.40;99.90;16.60;97081.00;;;;5107509;28;20218;-67
2021/06/27 01:36:38;;;;;;;4.53;3.93;;;17.30;99.90;16.60;97072.00;;;;5108255;28;20872;-67
2021/06/27 01:39:28;;;;;;;6.57;4.73;;;17.20;99.90;16.80;97068.00;;;;5106992;28;20276;-66
2021/06/27 01:42:18;;;;;;;6.73;3.57;;;17.10;99.90;16.80;97061.00;;;;5107207;28;20234;-68
2021/06/27 01:45:17;;;;;;;4.93;3.70;;;17.10;99.90;16.90;97061.00;;;;5108268;28;20194;-66
2021/06/27 01:48:10;;;;;;;6.73;4.20;;;17.10;99.90;16.90;97068.00;;;;5107481;28;20598;-66
2021/06/27 01:51:03;;;;;;;5.80;3.90;;;17.20;99.90;16.90;97080.00;;;;5107117;28;20236;-65
2021/06/27 01:53:52;;;;;;;8.00;4.37;;;17.20;99.90;16.80;97085.00;;;;5107595;28;20207;-64
2021/06/27 01:56:42;;;;;;;6.53;4.00;;;17.20;99.90;16.90;97083.00;;;;5108608;28;20206;-67
2021/06/27 01:59:31;;;;;;;5.70;3.67;;;17.20;99.90;17.00;97068.00;;;;5107673;28;20210;-67
2021/06/27 02:02:20;;;;;;;4.80;3.50;;;17.20;99.90;17.00;97047.00;;;;5106608;28;20233;-67
2021/06/27 02:05:12;;;;;;;5.27;3.37;;;17.30;99.90;17.00;97047.00;;;;5106658;28;20206;-67
2021/06/27 02:08:01;;;;;;;4.27;3.13;;;17.30;99.90;17.00;97043.00;;;;5106065;28;20292;-67
2021/06/27 02:10:50;;;;;;;10.33;3.97;;;17.30;99.90;17.00;97047.00;;;;5106448;28;20209;-67
2021/06/27 02:13:41;;;;;;;6.73;3.67;;;17.30;99.90;17.10;97045.00;;;;5105369;28;20207;-67
2021/06/27 02:16:30;;;;;;;6.87;3.73;;;17.30;99.90;17.10;97033.00;;;;5092590;28;20215;-66
2021/06/27 02:19:19;;;;;;;4.27;2.40;;;17.30;99.90;17.00;97027.00;;;;5107221;28;20699;-67
2021/06/27 02:22:08;;;;;;;3.57;3.27;;;17.30;99.90;16.90;97026.00;;;;5105697;28;20222;-67
2021/06/27 02:24:56;;;;;;;3.27;2.37;;;17.30;99.90;16.80;97011.00;;;;5105664;28;20202;-66
2021/06/27 02:27:45;;;;;;;3.97;2.90;;;17.20;99.90;16.80;97009.00;;;;5102718;28;20198;-66
2021/06/27 02:30:36;;;;;;;4.10;2.53;;;17.10;99.90;16.70;97012.00;;;;5106516;28;20733;-67
2021/06/27 02:33:25;;;;;;;4.00;3.60;;;17.10;99.90;16.60;97010.00;;;;5097713;28;20195;-67
2021/06/27 02:36:14;;;;;;;2.97;2.50;;;17.00;99.90;16.60;96992.00;;;;5107588;28;20206;-66
2021/06/27 02:39:04;;;;;;;2.40;2.20;;;17.00;99.90;16.60;96981.00;;;;5105779;28;20206;-65
2021/06/27 02:41:54;;;;;;;5.33;2.17;;;17.00;99.90;16.60;96998.00;;;;5106306;28;20602;-66
2021/06/27 02:44:42;;;;;;;2.40;2.20;;;16.90;99.90;16.50;96992.00;;;;5105845;28;20704;-67
2021/06/27 02:47:33;;;;;;;5.00;2.87;;;16.90;99.90;16.40;96986.00;;;;5105107;28;20601;-66
2021/06/27 02:50:22;;;;;;;2.37;2.17;;;16.90;99.90;16.40;96987.00;;;;5106234;28;20244;-66
2021/06/27 02:53:12;;;;;;;5.07;2.53;;;16.80;99.90;16.30;96990.00;;;;5105995;28;20292;-65
2021/06/27 02:56:10;;;;;;;4.57;2.47;;;16.60;99.90;16.40;96989.00;;;;5106595;28;20203;-64
2021/06/27 02:58:59;;;;;;;1.90;1.67;;;16.70;99.90;16.30;96996.00;;;;5105545;28;20198;-65
2021/06/27 03:01:49;;;;;;;2.07;1.87;;;16.60;99.90;16.30;96992.00;;;;5105260;28;20240;-67
2021/06/27 03:04:39;;;;;;;2.83;2.03;;;16.60;99.90;16.20;96993.00;;;;5105218;28;20669;-67
2021/06/27 03:07:28;;;;;;;2.27;2.07;;;16.60;99.90;16.20;96992.00;;;;5094909;28;20217;-64
2021/06/27 03:10:20;;;;;;;3.13;1.53;;;16.60;99.90;16.10;96997.00;;;;5106611;28;20673;-64
2021/06/27 03:13:09;;;;;;;2.33;1.73;;;16.60;99.90;16.10;96999.00;;;;5104228;28;20583;-64
2021/06/27 03:15:58;;;;;;;6.43;1.90;;;16.60;99.90;16.10;97006.00;;;;5092686;28;20210;-63
2021/06/27 03:18:47;;;;;;;1.87;1.77;;;16.50;99.90;16.00;97007.00;;;;5094757;28;20256;-63
2021/06/27 03:21:37;;;;;;;5.57;2.33;;;16.40;99.90;15.90;97007.00;;;;5105561;28;20226;-63
2021/06/27 03:24:26;;;;;;;3.03;1.80;;;16.40;99.90;15.90;97007.00;;;;5105127;28;20213;-64
2021/06/27 03:27:15;;;;;;;3.67;1.83;;;16.40;99.90;16.00;97010.00;;;;5104947;28;20205;-64
2021/06/27 03:30:07;;;;;;;1.60;1.50;;;16.30;99.90;16.00;97008.00;;;;5093820;28;20225;-65
2021/06/27 03:32:57;;;;;;;3.07;1.97;;;16.30;99.90;16.00;97017.00;;;;5106141;28;20222;-63
2021/06/27 03:35:45;;;;;;;2.10;1.77;;;16.30;99.90;16.10;97018.00;;;;5105973;28;20206;-65
2021/06/27 03:38:42;;;;;;;1.47;1.37;;;16.30;99.90;16.10;97011.00;;;;5106015;28;20490;-64
2021/06/27 03:41:34;;;;;;;1.40;1.30;;;16.40;99.90;16.00;97012.00;;;;5106093;28;20233;-64
2021/06/27 03:44:23;;;;;;;3.27;1.50;;;16.40;99.90;16.00;97001.00;;;;5105887;28;20300;-64
2021/06/27 03:47:12;;;;;;;3.27;2.20;;;16.40;99.90;16.00;97006.00;;;;5103526;28;20198;-64
2021/06/27 03:50:04;;;;;;;1.70;1.50;;;16.40;99.90;15.80;96998.00;;;;5105981;28;20602;-64
2021/06/27 03:52:53;;;;;;;3.63;1.90;;;16.30;99.90;15.80;97007.00;;;;5094446;28;20218;-64
2021/06/27 03:55:44;;;;;;;2.50;1.80;;;16.30;99.90;15.80;97008.00;;;;5104140;28;20201;-64
2021/06/27 03:58:33;;;;;;;1.80;1.70;;;16.20;99.90;15.70;97009.00;;;;5105304;28;20211;-65
2021/06/27 04:01:22;;;;;;;1.40;1.30;;;16.20;99.90;15.70;97008.00;;;;5105485;28;20218;-65
2021/06/27 04:04:11;;;;;;;1.90;1.50;;;16.10;99.90;15.60;97014.00;;;;5102804;28;20219;-65
2021/06/27 04:07:00;;;;;;;4.00;1.70;;;16.10;99.90;15.50;97018.00;;;;5105475;28;20211;-66
2021/06/27 04:09:49;;;;;;;2.83;2.10;;;16.00;99.90;15.60;97008.00;;;;5105255;28;20896;-64
2021/06/27 04:12:40;;;;;;;3.13;1.20;;;16.00;99.90;15.70;97013.00;;;;5103546;28;20229;-65
2021/06/27 04:15:29;;;;;;;1.93;1.73;;;16.00;99.90;15.70;97019.00;;;;5085906;28;20257;-65
2021/06/27 04:18:17;;;;;;;1.67;1.57;;;16.00;99.90;15.70;97017.00;;;;5104262;28;20195;-65
2021/06/27 04:21:08;;;;;;;4.43;1.50;;;16.00;99.90;15.60;97010.00;;;;5064497;28;20228;-65
2021/06/27 04:23:57;;;;;;;1.60;1.50;;;16.00;99.90;15.60;97012.00;;;;5064752;28;20218;-65
2021/06/27 04:26:46;;;;;;;2.70;1.50;;;16.00;99.90;15.60;97005.00;;;;5054665;28;20208;-65
2021/06/27 04:29:36;;;;;;;1.83;1.73;;;16.00;99.90;15.70;97007.00;;;;5063742;28;20682;-65
2021/06/27 04:32:26;;;;;;;3.13;1.87;;;16.00;99.90;15.70;97012.00;;;;5065759;28;20223;-65
2021/06/27 04:35:15;;;;;;;3.90;2.10;;;16.00;99.90;15.70;97020.00;;;;5065909;28;20227;-65
2021/06/27 04:38:05;;;;;;;4.40;1.90;;;16.00;99.90;15.50;97021.00;;;;5052675;28;20208;-66
2021/06/27 04:40:56;;;;;;;3.00;1.83;;;16.00;99.90;15.60;97030.00;;;;5064760;28;20224;-66
2021/06/27 04:43:45;;;;;;;2.83;1.73;;;16.00;99.90;15.50;97026.00;;;;5065182;28;20227;-66
2021/06/27 04:46:36;;;;;;;4.43;1.90;;;16.00;99.90;15.60;97019.00;;;;5064905;28;20203;-66
2021/06/27 04:49:25;;;;;;;2.00;1.87;;;16.00;99.90;15.70;97023.00;;;;5057471;28;20200;-66
2021/06/27 04:52:14;;;;;;;3.07;2.10;;;16.00;99.90;15.70;97017.00;;;;5065491;28;20230;-66
2021/06/27 04:55:04;;;;;;;3.77;1.93;;;16.00;99.90;15.70;97016.00;;;;5068253;28;20670;-66
2021/06/27 04:57:53;;;;;;;2.90;1.97;;;16.00;99.90;15.70;97006.00;;;;5069569;28;20200;-65
2021/06/27 05:00:44;;;;;;;2.20;2.03;;;16.00;99.90;15.80;96999.00;;;;5068146;28;20203;-65
2021/06/27 05:03:35;;;;;;;4.17;1.70;;;16.00;99.90;15.90;97001.00;;;;5063467;28;20220;-65
2021/06/27 05:06:24;;;;;;;1.80;1.70;;;16.10;99.90;15.90;96996.00;;;;5066572;28;20365;-65
2021/06/27 05:09:13;;;;;;;2.10;1.37;;;16.10;99.90;16.00;96979.00;;;;5067291;28;20558;-65
2021/06/27 05:12:01;;;;;;;2.07;1.90;;;16.20;99.90;15.90;96982.00;;;;5066094;28;20227;-65
2021/06/27 05:14:50;;;;;;;4.33;3.80;;;16.20;99.90;15.70;96966.00;;;;5063903;28;20200;-65
2021/06/27 05:17:39;;;;;;;1.93;1.60;;;16.20;99.90;15.90;96970.00;;;;5060919;28;20689;-67
2021/06/27 05:20:30;;;;;;;1.80;1.30;;;16.30;99.90;16.10;96971.00;;;;5082509;28;20207;-67
2021/06/27 05:23:19;;;;;;;1.50;1.40;;;16.30;99.90;16.10;96967.00;;;;5086758;28;20279;-64
2021/06/27 05:26:08;;;;;;;1.57;1.37;;;16.40;99.90;16.30;96983.00;;;;5080878;28;20199;-66
2021/06/27 05:28:57;;;;;;;1.70;1.60;;;16.50;99.90;16.20;96982.00;;;;5085991;28;20573;-66
2021/06/27 05:31:46;;;;;;;2.13;1.60;;;16.60;99.90;16.50;96970.00;;;;5085909;28;20601;-66
2021/06/27 05:34:35;;;;;;;1.27;1.00;;;16.60;99.90;16.80;96967.00;;;;5086845;28;20684;-64
2021/06/27 05:37:25;;;;;;;2.40;1.00;;;16.70;99.90;16.90;96968.00;;;;5084633;28;20584;-66
2021/06/27 05:40:14;;;;;;;2.60;2.40;;;16.90;99.90;17.20;96972.00;;;;5079597;28;20203;-66
2021/06/27 05:43:03;;;;;;;1.40;1.00;;;17.10;99.90;17.30;96968.00;;;;5074094;28;20200;-66
2021/06/27 05:45:53;;;;;;;1.70;0.90;;;17.20;99.90;17.10;96965.00;;;;5105292;28;20222;-65
2021/06/27 05:48:41;;;;;;;1.80;1.70;;;17.30;99.90;17.50;96962.00;;;;5105707;28;20240;-66
2021/06/27 05:51:30;;;;;;;1.23;0.93;;;17.50;99.90;17.40;96957.00;;;;5105926;28;20234;-66
2021/06/27 05:54:20;;;;;;;1.10;0.80;;;17.60;99.90;17.80;96960.00;;;;5105169;28;20210;-65
2021/06/27 05:57:10;;;;;;;1.30;1.10;;;17.70;99.90;18.00;96956.00;;;;5102665;28;20681;-66
2021/06/27 05:59:59;;;;;;;2.77;1.03;;;17.90;99.90;18.20;96957.00;;;;5104122;28;20205;-66
2021/06/27 06:02:48;;;;;;;1.77;1.20;;;18.00;99.90;18.30;96954.00;;;;5084206;28;20227;-66
2021/06/27 06:05:36;;;;;;;3.50;1.60;;;18.20;99.90;18.50;96950.00;;;;5085251;28;20203;-66
2021/06/27 06:08:26;;;;;;;1.73;1.50;;;18.30;99.90;18.70;96954.00;;;;5074510;28;20257;-64
2021/06/27 06:11:18;;;;;;;2.40;2.17;;;18.50;99.90;18.90;96952.00;;;;5082268;28;20227;-66
2021/06/27 06:14:08;;;;;;;2.03;1.90;;;18.70;99.90;19.10;96956.00;;;;5090015;28;20199;-69
2021/06/27 06:16:57;;;;;;;2.33;1.97;;;18.90;99.90;19.30;96949.00;;;;5073025;28;20203;-66
2021/06/27 06:19:50;;;;;;;2.83;2.10;;;19.10;99.90;19.30;96943.00;;;;5104479;28;20599;-66
2021/06/27 06:22:39;;;;;;;2.17;1.90;;;19.30;99.90;19.40;96949.00;;;;5103985;28;20221;-66
2021/06/27 06:25:28;;;;;;;3.47;2.30;;;19.40;99.90;19.60;96948.00;;;;5104578;28;20226;-66
2021/06/27 06:28:18;;;;;;;1.73;1.63;;;19.50;99.90;19.70;96935.00;;;;5094061;28;20222;-66
2021/06/27 06:31:08;;;;;;;3.47;1.97;;;19.60;99.90;19.90;96935.00;;;;5102086;28;20222;-66
2021/06/27 06:33:57;;;;;;;1.63;1.53;;;19.70;99.90;20.00;96945.00;;;;5101209;28;20551;-65
2021/06/27 06:36:48;;;;;;;2.50;1.97;;;19.90;99.90;19.40;96936.00;;;;5097315;28;20211;-68
2021/06/27 06:39:37;;;;;;;4.63;2.10;;;19.90;99.90;19.30;96937.00;;;;5093589;28;20697;-68
2021/06/27 06:42:26;;;;;;;1.40;1.30;;;19.80;99.90;19.20;96934.00;;;;5100050;28;20601;-67
2021/06/27 06:45:16;;;;;;;1.77;1.67;;;19.70;99.90;19.30;96941.00;;;;5102912;28;20735;-67
2021/06/27 06:48:07;;;;;;;1.80;1.70;;;19.70;99.90;19.40;96942.00;;;;5105356;28;20924;-66
2021/06/27 06:50:56;;;;;;;1.50;1.40;;;19.70;99.90;19.40;96943.00;;;;5100161;28;20235;-68
2021/06/27 06:53:44;;;;;;;1.77;1.67;;;19.60;99.90;19.40;96945.00;;;;5101278;28;20577;-69
2021/06/27 06:56:33;;;;;;;1.63;1.33;;;19.70;99.90;19.60;96945.00;;;;5103277;28;20198;-71
2021/06/27 06:59:22;;;;;;;2.23;1.40;;;19.70;99.90;19.80;96938.00;;;;5095232;28;20211;-67
2021/06/27 07:02:12;;;;;;;1.70;1.60;;;19.90;99.90;20.00;96952.00;;;;5104776;28;20863;-68
2021/06/27 07:05:01;;;;;;;2.10;1.80;;;20.00;99.90;20.30;96953.00;;;;5103154;28;20230;-70
2021/06/27 07:07:50;;;;;;;2.80;1.93;;;20.20;99.90;20.40;96949.00;;;;5104174;28;20213;-73
2021/06/27 07:10:39;;;;;;;1.67;1.57;;;20.30;99.90;20.70;96938.00;;;;5091219;28;20573;-70
2021/06/27 07:13:28;;;;;;;1.87;1.77;;;20.50;99.90;20.60;96936.00;;;;5103149;28;20202;-71
2021/06/27 07:16:17;;;;;;;3.90;3.13;;;20.70;99.90;20.70;96927.00;;;;5091205;28;20230;-71
2021/06/27 07:19:07;;;;;;;1.63;1.53;;;20.70;99.90;21.00;96934.00;;;;5104249;28;20301;-67
2021/06/27 07:21:56;;;;;;;1.80;1.70;;;20.90;99.90;21.30;96942.00;;;;5102800;28;20571;-73
2021/06/27 07:24:45;;;;;;;3.50;1.80;;;21.10;99.90;21.70;96939.00;;;;5100683;28;20229;-71
2021/06/27 07:27:34;;;;;;;2.63;1.90;;;21.30;99.90;21.90;96932.00;;;;5103214;28;20198;-69
2021/06/27 07:30:24;;;;;;;3.40;2.20;;;21.60;99.90;22.00;96930.00;;;;5103212;28;20213;-68
2021/06/27 07:33:14;;;;;;;2.03;1.77;;;21.80;99.90;22.30;96943.00;;;;5103884;28;20199;-69
2021/06/27 07:36:06;;;;;;;1.37;1.27;;;22.00;99.90;22.40;96942.00;;;;5103405;28;20599;-67
2021/06/27 07:38:55;;;;;;;1.47;1.33;;;22.20;99.90;22.50;96931.00;;;;5102873;28;20202;-67
2021/06/27 07:41:44;;;;;;;2.83;1.80;;;22.30;99.90;22.70;96938.00;;;;5105716;28;20222;-68
2021/06/27 07:44:33;;;;;;;1.50;1.40;;;22.50;99.90;22.90;96928.00;;;;5101156;28;20226;-66
2021/06/27 07:47:22;;;;;;;2.43;1.90;;;22.60;99.90;23.00;96917.00;;;;5098662;28;20221;-66
2021/06/27 07:50:12;;;;;;;1.73;1.43;;;22.80;99.90;23.00;96926.00;;;;5102821;28;20203;-66
2021/06/27 07:53:02;;;;;;;1.83;1.47;;;23.00;99.90;23.10;96929.00;;;;5103709;28;20206;-66
2021/06/27 07:55:51;;;;;;;1.30;1.20;;;23.00;99.90;23.30;96922.00;;;;5103964;28;20199;-67
2021/06/27 07:58:40;;;;;;;1.77;1.67;;;23.10;99.90;23.00;96929.00;;;;5102973;28;20601;-69
2021/06/27 08:01:29;;;;;;;1.60;1.50;;;23.20;99.90;23.40;96935.00;;;;5103431;28;20423;-66
2021/06/27 08:04:18;;;;;;;1.70;1.50;;;23.20;99.90;23.10;96930.00;;;;5104741;28;20309;-66
2021/06/27 08:07:07;;;;;;;1.50;1.40;;;23.30;99.90;23.30;96937.00;;;;5102282;28;20549;-65
2021/06/27 08:09:57;;;;;;;2.40;1.90;;;23.40;99.90;23.80;96931.00;;;;5104515;28;20210;-66
2021/06/27 08:12:46;;;;;;;1.50;1.40;;;23.50;99.90;24.00;96927.00;;;;5103512;28;20616;-64
2021/06/27 08:15:35;;;;;;;1.70;1.60;;;23.70;99.90;24.10;96926.00;;;;5084842;28;20219;-66
2021/06/27 08:18:24;;;;;;;1.53;1.43;;;23.90;99.90;24.40;96927.00;;;;5102578;28;20199;-65
2021/06/27 08:21:13;;;;;;;4.20;1.40;;;24.10;99.90;24.30;96924.00;;;;5099100;28;20240;-66
2021/06/27 08:24:02;;;;;;;1.17;1.07;;;24.20;99.90;24.70;96919.00;;;;5104323;28;20195;-66
2021/06/27 08:26:53;;;;;;;1.20;1.10;;;24.40;99.90;25.00;96915.00;;;;5106931;28;20202;-65
2021/06/27 08:29:41;;;;;;;2.17;1.70;;;24.60;99.90;25.00;96921.00;;;;5109822;28;20217;-65
2021/06/27 08:32:31;;;;;;;1.50;1.37;;;24.70;99.90;24.90;96919.00;;;;5108444;28;20235;-65
2021/06/27 08:35:22;;;;;;;1.40;1.30;;;24.80;99.90;24.90;96925.00;;;;5100086;28;20586;-66
2021/06/27 08:38:11;;;;;;;1.07;1.07;;;24.80;99.90;24.70;96919.00;;;;5096406;28;20204;-66
2021/06/27 08:41:00;;;;;;;1.10;1.00;;;24.90;99.90;24.80;96911.00;;;;5099177;28;20220;-68
2021/06/27 08:43:50;;;;;;;2.33;1.30;;;24.90;99.90;25.10;96918.00;;;;5096085;28;20207;-66
2021/06/27 08:46:43;;;;;;;1.60;1.50;;;24.90;99.90;25.10;96925.00;;;;5100962;28;20215;-66
2021/06/27 08:49:33;;;;;;;1.20;1.03;;;25.00;99.90;24.90;96916.00;;;;5100813;28;20226;-65
2021/06/27 08:52:23;;;;;;;1.10;1.00;;;25.00;99.90;25.00;96916.00;;;;5102024;28;20223;-65
2021/06/27 08:55:14;;;;;;;1.23;1.13;;;25.10;99.90;25.30;96908.00;;;;5106841;28;20207;-65
2021/06/27 08:58:03;;;;;;;4.43;1.20;;;25.10;99.90;25.70;96923.00;;;;5108061;28;20202;-66
2021/06/27 09:00:55;;;;;;;1.17;1.07;;;25.30;99.90;25.00;96919.00;;;;5081601;28;20209;-66
2021/06/27 09:03:45;;;;;;;1.33;1.23;;;25.30;99.90;24.40;96913.00;;;;5104233;28;20242;-67
2021/06/27 09:06:36;;;;;;;1.40;1.30;;;25.20;99.50;24.40;96904.00;;;;5107165;28;20227;-66
2021/06/27 09:09:25;;;;;;;1.40;1.30;;;24.90;99.90;25.40;96915.00;;;;5107745;28;20619;-67
2021/06/27 09:12:14;;;;;;;1.13;1.13;;;25.00;99.90;25.60;96918.00;;;;5096548;28;20332;-66
2021/06/27 09:15:04;;;;;;;1.87;1.27;;;25.20;99.90;25.70;96911.00;;;;5101917;28;20194;-66
2021/06/27 09:17:55;;;;;;;1.23;1.13;;;25.40;99.90;26.10;96905.00;;;;5108450;28;20205;-66
2021/06/27 09:20:46;;;;;;;1.20;1.10;;;25.60;99.90;25.80;96908.00;;;;5108651;28;20773;-66
2021/06/27 09:23:38;;;;;;;1.77;1.47;;;25.80;97.00;26.40;96904.00;;;;5105076;28;20591;-66
2021/06/27 09:26:29;;;;;;;1.57;1.43;;;25.90;99.90;26.70;96899.00;;;;5107817;28;20632;-66
2021/06/27 09:29:26;;;;;;;1.77;1.43;;;26.10;99.90;27.00;96901.00;;;;5108854;28;20585;-66
2021/06/27 09:32:18;;;;;;;0.87;0.87;;;26.40;99.90;26.50;96903.00;;;;5107052;28;20322;-67
2021/06/27 09:35:10;;;;;;;2.07;1.10;;;26.50;99.20;25.70;96905.00;;;;5096126;28;20209;-66
2021/06/27 09:37:59;;;;;;;1.97;1.17;;;26.40;94.70;26.30;96904.00;;;;5105763;28;20200;-66
2021/06/27 09:40:49;;;;;;;1.07;0.97;;;26.30;98.30;26.50;96909.00;;;;5107073;28;20587;-66
2021/06/27 09:43:38;;;;;;;1.80;1.27;;;26.50;99.40;26.80;96903.00;;;;5108337;28;20392;-65
2021/06/27 09:46:36;;;;;;;1.50;1.10;;;26.50;98.00;26.30;96903.00;;;;5106771;28;20688;-66
2021/06/27 09:49:31;;;;;;;2.23;1.10;;;26.50;94.90;26.90;96893.00;;;;5107636;28;20289;-66
2021/06/27 09:52:36;;;;;;;0.80;0.70;;;26.60;95.10;27.10;96893.00;;;;5100842;28;20695;-65
2021/06/27 09:55:25;;;;;;;0.87;0.87;;;26.80;93.60;26.90;96884.00;;;;5104298;28;21423;-65
2021/06/27 09:58:14;;;;;;;1.87;0.83;;;26.90;90.20;26.90;96886.00;;;;5103157;28;20212;-67
2021/06/27 10:01:21;;;;;;;1.57;1.47;;;26.90;89.20;27.40;96876.00;;;;5100109;28;20214;-67
2021/06/27 10:04:13;;;;;;;1.17;0.80;;;27.10;89.00;27.00;96873.00;;;;5104226;28;20233;-66
2021/06/27 10:07:05;;;;;;;2.13;1.10;;;27.20;85.30;27.40;96868.00;;;;5106544;28;20699;-66
2021/06/27 10:09:55;;;;;;;0.97;0.90;;;27.20;83.70;27.40;96866.00;;;;5106257;28;20220;-66
2021/06/27 10:12:44;;;;;;;1.10;1.00;;;27.30;80.10;27.50;96859.00;;;;5105555;28;20479;-66
2021/06/27 10:15:45;;;;;;;0.80;0.73;;;27.40;79.90;27.80;96858.00;;;;5092805;28;20199;-66
2021/06/27 10:18:35;;;;;;;0.90;0.70;;;27.50;81.20;28.60;96858.00;;;;5096375;28;20208;-66
2021/06/27 10:21:24;;;;;;;1.20;1.10;;;27.70;82.20;28.30;96865.00;;;;5103704;28;20224;-67
2021/06/27 10:24:13;;;;;;;0.90;0.90;;;28.00;80.80;27.40;96857.00;;;;5106037;28;20204;-68
2021/06/27 10:27:05;;;;;;;1.50;1.37;;;27.80;75.70;28.40;96859.00;;;;5106136;28;20232;-68
2021/06/27 10:29:55;;;;;;;7.53;1.57;;;27.90;82.60;28.80;96855.00;;;;5093524;28;20197;-67
2021/06/27 10:32:46;;;;;;;2.43;1.17;;;28.10;82.80;29.30;96861.00;;;;5085991;28;20230;-67
2021/06/27 10:35:35;;;;;;;1.60;1.50;;;28.40;82.90;29.70;96862.00;;;;5105268;28;20205;-66
2021/06/27 10:38:29;;;;;;;2.53;1.13;;;28.70;83.50;29.80;96870.00;;;;5106424;28;20210;-67
2021/06/27 10:41:18;;;;;;;2.13;1.97;;;29.00;84.20;29.90;96865.00;;;;5094311;28;20716;-67
2021/06/27 10:44:09;;;;;;;1.93;1.30;;;29.20;81.60;28.60;96878.00;;;;5106408;28;20213;-67
2021/06/27 10:46:59;;;;;;;2.43;2.03;;;29.30;73.50;29.50;96869.00;;;;5106373;28;20705;-68
2021/06/27 10:49:52;;;;;;;2.50;2.30;;;29.20;74.90;29.90;96859.00;;;;5105871;28;20203;-68
2021/06/27 10:53:02;;;;;;;16.80;15.37;;;29.30;76.00;29.50;96860.00;;;;5093479;28;20689;-67
2021/06/27 10:55:58;;;;;;;3.17;2.97;;;29.50;77.00;29.90;96878.00;;;;5101006;28;20617;-67
2021/06/27 10:58:47;;;;;;;3.27;2.83;;;29.50;76.20;30.20;96849.00;;;;5075219;28;20589;-69
2021/06/27 11:02:12;;;;;;;1.37;1.27;;;29.70;75.20;30.20;96841.00;;;;5073529;28;20285;-67
2021/06/27 11:05:47;;;;;;;1.60;1.40;;;29.90;74.60;30.60;96859.00;;;;5075480;28;20238;-67
2021/06/27 11:08:39;;;;;;;1.60;1.50;;;30.10;73.10;28.90;96835.00;;;;5079385;28;20214;-70
2021/06/27 11:11:28;;;;;;;2.07;1.13;;;30.00;68.40;28.00;96841.00;;;;5075661;28;20233;-69
2021/06/27 11:14:19;;;;;;;10.43;9.33;;;29.60;69.20;29.70;96853.00;;;;5081926;28;20285;-67
2021/06/27 11:17:10;;;;;;;2.27;2.03;;;29.20;74.20;30.10;96860.00;;;;5081933;28;20200;-69
2021/06/27 11:20:06;;;;;;;7.40;6.27;;;29.40;73.70;29.60;96834.00;;;;5085224;28;20222;-68
2021/06/27 11:22:57;;;;;;;4.07;3.43;;;29.40;67.90;28.40;96831.00;;;;5084285;28;20227;-69
2021/06/27 11:25:49;;;;;;;210.67;177.13;;;29.40;70.80;30.10;96831.00;;;;5081132;28;20593;-68
2021/06/27 11:28:39;;;;;;;16.40;14.37;;;29.40;70.90;29.40;96837.00;;;;5085909;28;20205;-68
2021/06/27 11:31:29;;;;;;;22.70;17.27;;;29.60;67.50;29.50;96844.00;;;;5073134;28;20228;-67
2021/06/27 11:34:27;;;;;;;4.00;3.53;;;29.50;68.40;29.20;96843.00;;;;5086073;28;20206;-67
2021/06/27 11:37:45;;;;;;;12.70;11.57;;;29.40;67.90;29.70;96850.00;;;;5085989;28;20203;-69
2021/06/27 11:40:47;;;;;;;3.57;3.27;;;29.50;68.60;29.30;96834.00;;;;5085656;28;20200;-67
2021/06/27 11:44:08;;;;;;;11.32;10.38;;;29.60;68.60;30.40;96835.00;;;;5085557;28;20231;-66
2021/06/27 11:46:57;;;;;;;2.25;1.48;;;29.70;69.00;30.00;96827.00;;;;5023818;28;20713;-68
2021/06/27 11:49:47;;;;;;;3.30;3.10;;;30.00;65.00;30.60;96817.00;;;;5084642;28;20217;-69
2021/06/27 11:52:36;;;;;;;2.60;1.60;;;30.20;67.00;30.70;96824.00;;;;5072814;28;20719;-69
2021/06/27 11:55:26;;;;;;;2.85;2.60;;;30.40;64.80;31.50;96829.00;;;;5084455;28;20207;-69
2021/06/27 11:58:20;;;;;;;1.30;1.20;;;30.60;65.70;30.00;96827.00;;;;5084448;28;19928;-67
2021/06/27 12:01:11;;;;;;;1.08;0.98;;;30.90;62.00;29.30;96834.00;;;;5084037;28;20222;-70
2021/06/27 12:04:00;;;;;;;1.55;1.25;;;30.30;61.50;29.90;96835.00;;;;5073497;28;20211;-67
2021/06/27 12:06:50;;;;;;;2.03;1.20;;;30.20;63.60;30.20;96834.00;;;;5075687;28;20233;-68
2021/06/27 12:09:39;;;;;;;2.13;1.70;;;30.20;61.50;30.80;96819.00;;;;5083627;28;20211;-72
2021/06/27 12:12:41;;;;;;;1.60;1.33;;;30.30;61.40;32.20;96813.00;;;;5083409;28;20224;-67
2021/06/27 12:15:39;;;;;;;1.45;1.30;;;30.70;65.00;32.30;96821.00;;;;5066501;28;20894;-68
2021/06/27 12:18:31;;;;;;;1.98;1.23;;;31.20;62.60;31.60;96838.00;;;;5071946;28;20201;-71
2021/06/27 12:21:20;;;;;;;1.25;1.05;;;31.30;61.10;31.10;96835.00;;;;5084624;28;20225;-71
2021/06/27 12:24:11;;;;;;;5.15;1.52;;;31.20;59.80;32.20;96818.00;;;;5085064;28;20216;-67
2021/06/27 12:27:10;;;;;;;1.10;1.02;;;31.30;62.60;32.10;96817.00;;;;5074823;28;20245;-67
2021/06/27 12:29:59;;;;;;;1.23;1.13;;;31.60;59.80;30.50;96840.00;;;;5073025;28;20695;-70
2021/06/27 12:33:00;;;;;;;2.05;1.45;;;31.40;57.80;29.80;96831.00;;;;5084806;28;20241;-69
2021/06/27 12:35:53;;;;;;;2.00;1.45;;;30.90;58.70;30.20;96838.00;;;;5084523;28;20206;-69
2021/06/27 12:38:49;;;;;;;1.40;1.30;;;30.70;59.60;29.30;96849.00;;;;5084547;28;20216;-66